Terminal Aerodrome Forecast
Issued by NWS

Home | Current Version | Previous Version | Text Only | Print | Product List | Glossary On
Versions: 1 2 3 4 5 6 7 8 9 10 11 12
000
FTUS41 KBTV 261720
TAFRUT
TAF
KRUT 261720Z 2618/2718 23007KT P6SM FEW060
     FM270000 13008KT P6SM FEW200
     FM271300 20007G15KT P6SM SCT200
      AMD LTD TO CLD VIS AND WIND=

USA.gov is the U.S. government's official web portal to all federal, state and local government web resources and services.